sensor_id;sensor_type;location;lat;lon;timestamp;temperature;humidity
39919;DHT22;25589;51.552;13.424;2022-11-13T00:01:10;7.50;99.90
39919;DHT22;25589;51.552;13.424;2022-11-13T00:06:41;7.30;99.90
39919;DHT22;25589;51.552;13.424;2022-11-13T00:09:25;7.30;99.90
39919;DHT22;25589;51.552;13.424;2022-11-13T00:12:09;7.40;99.90
39919;DHT22;25589;51.552;13.424;2022-11-13T00:14:53;7.60;99.90
39919;DHT22;25589;51.552;13.424;2022-11-13T00:17:37;7.30;99.90
39919;DHT22;25589;51.552;13.424;2022-11-13T00:20:21;6.80;99.90
39919;DHT22;25589;51.552;13.424;2022-11-13T00:23:05;7.70;99.90
39919;DHT22;25589;51.552;13.424;2022-11-13T00:25:49;7.60;99.90
39919;DHT22;25589;51.552;13.424;2022-11-13T00:28:34;7.40;99.90
39919;DHT22;25589;51.552;13.424;2022-11-13T00:31:18;7.50;99.90
39919;DHT22;25589;51.552;13.424;2022-11-13T00:34:02;7.30;99.90
39919;DHT22;25589;51.552;13.424;2022-11-13T00:36:46;8.10;99.90
39919;DHT22;25589;51.552;13.424;2022-11-13T00:39:31;7.20;99.90
39919;DHT22;25589;51.552;13.424;2022-11-13T00:42:15;7.10;99.90
39919;DHT22;25589;51.552;13.424;2022-11-13T00:44:59;7.10;99.90
39919;DHT22;25589;51.552;13.424;2022-11-13T00:47:43;7.40;99.90
39919;DHT22;25589;51.552;13.424;2022-11-13T00:50:27;7.20;99.90
39919;DHT22;25589;51.552;13.424;2022-11-13T00:53:11;7.30;99.90
39919;DHT22;25589;51.552;13.424;2022-11-13T00:55:56;7.30;99.90
39919;DHT22;25589;51.552;13.424;2022-11-13T00:58:40;7.10;99.90
39919;DHT22;25589;51.552;13.424;2022-11-13T01:01:25;7.30;99.90
39919;DHT22;25589;51.552;13.424;2022-11-13T01:04:09;7.30;99.90
39919;DHT22;25589;51.552;13.424;2022-11-13T01:06:53;7.10;99.90
39919;DHT22;25589;51.552;13.424;2022-11-13T01:09:38;8.10;99.90
39919;DHT22;25589;51.552;13.424;2022-11-13T01:12:22;7.20;99.90
39919;DHT22;25589;51.552;13.424;2022-11-13T01:15:06;7.40;99.90
39919;DHT22;25589;51.552;13.424;2022-11-13T01:17:51;7.20;99.90
39919;DHT22;25589;51.552;13.424;2022-11-13T01:20:37;7.50;99.90
39919;DHT22;25589;51.552;13.424;2022-11-13T01:23:21;7.40;99.90
39919;DHT22;25589;51.552;13.424;2022-11-13T01:28:56;7.50;99.90
39919;DHT22;25589;51.552;13.424;2022-11-13T01:31:40;7.10;99.90
39919;DHT22;25589;51.552;13.424;2022-11-13T01:34:24;7.30;99.90
39919;DHT22;25589;51.552;13.424;2022-11-13T01:37:08;7.50;99.90
39919;DHT22;25589;51.552;13.424;2022-11-13T01:39:52;7.40;99.90
39919;DHT22;25589;51.552;13.424;2022-11-13T01:42:36;7.40;99.90
39919;DHT22;25589;51.552;13.424;2022-11-13T01:48:46;8.20;99.90
39919;DHT22;25589;51.552;13.424;2022-11-13T01:51:39;7.60;99.90
39919;DHT22;25589;51.552;13.424;2022-11-13T01:54:32;8.10;99.90
39919;DHT22;25589;51.552;13.424;2022-11-13T01:57:18;7.60;99.90
39919;DHT22;25589;51.552;13.424;2022-11-13T02:00:07;7.50;99.90
39919;DHT22;25589;51.552;13.424;2022-11-13T02:02:51;8.60;99.90
39919;DHT22;25589;51.552;13.424;2022-11-13T02:05:35;7.50;99.90
39919;DHT22;25589;51.552;13.424;2022-11-13T02:08:20;7.60;99.90
39919;DHT22;25589;51.552;13.424;2022-11-13T02:11:04;7.60;99.90
39919;DHT22;25589;51.552;13.424;2022-11-13T02:13:49;8.10;99.90
39919;DHT22;25589;51.552;13.424;2022-11-13T02:16:35;8.60;99.90
39919;DHT22;25589;51.552;13.424;2022-11-13T02:19:25;7.60;99.90
39919;DHT22;25589;51.552;13.424;2022-11-13T02:25:02;7.60;99.90
39919;DHT22;25589;51.552;13.424;2022-11-13T02:27:49;7.80;99.90
39919;DHT22;25589;51.552;13.424;2022-11-13T02:30:34;7.50;99.90
39919;DHT22;25589;51.552;13.424;2022-11-13T02:33:38;7.60;99.90
39919;DHT22;25589;51.552;13.424;2022-11-13T02:36:24;7.60;99.90
39919;DHT22;25589;51.552;13.424;2022-11-13T02:39:10;8.60;99.90
39919;DHT22;25589;51.552;13.424;2022-11-13T02:41:55;7.70;99.90
39919;DHT22;25589;51.552;13.424;2022-11-13T02:44:39;7.50;99.90
39919;DHT22;25589;51.552;13.424;2022-11-13T02:47:23;8.30;99.90
39919;DHT22;25589;51.552;13.424;2022-11-13T02:50:07;7.80;99.90
39919;DHT22;25589;51.552;13.424;2022-11-13T02:52:51;7.80;99.90
39919;DHT22;25589;51.552;13.424;2022-11-13T02:55:35;7.80;99.90
39919;DHT22;25589;51.552;13.424;2022-11-13T02:58:20;7.80;99.90
39919;DHT22;25589;51.552;13.424;2022-11-13T03:01:04;7.40;99.90
39919;DHT22;25589;51.552;13.424;2022-11-13T03:03:48;7.80;99.90
39919;DHT22;25589;51.552;13.424;2022-11-13T03:06:33;7.70;99.90
39919;DHT22;25589;51.552;13.424;2022-11-13T03:09:17;7.30;99.90
39919;DHT22;25589;51.552;13.424;2022-11-13T03:12:01;7.70;99.90
39919;DHT22;25589;51.552;13.424;2022-11-13T03:14:45;7.70;99.90
39919;DHT22;25589;51.552;13.424;2022-11-13T03:17:33;7.60;99.90
39919;DHT22;25589;51.552;13.424;2022-11-13T03:20:17;6.90;99.90
39919;DHT22;25589;51.552;13.424;2022-11-13T03:23:02;7.40;99.90
39919;DHT22;25589;51.552;13.424;2022-11-13T03:25:46;7.50;99.90
39919;DHT22;25589;51.552;13.424;2022-11-13T03:28:30;7.70;99.90
39919;DHT22;25589;51.552;13.424;2022-11-13T03:31:15;7.80;99.90
39919;DHT22;25589;51.552;13.424;2022-11-13T03:33:59;9.20;99.90
39919;DHT22;25589;51.552;13.424;2022-11-13T03:36:43;7.90;99.90
39919;DHT22;25589;51.552;13.424;2022-11-13T03:39:27;7.90;99.90
39919;DHT22;25589;51.552;13.424;2022-11-13T03:42:11;7.20;99.90
39919;DHT22;25589;51.552;13.424;2022-11-13T03:44:55;8.50;99.90
39919;DHT22;25589;51.552;13.424;2022-11-13T03:47:39;7.70;99.90
39919;DHT22;25589;51.552;13.424;2022-11-13T03:50:24;7.60;99.90
39919;DHT22;25589;51.552;13.424;2022-11-13T03:53:08;8.40;99.90
39919;DHT22;25589;51.552;13.424;2022-11-13T03:55:52;8.00;99.90
39919;DHT22;25589;51.552;13.424;2022-11-13T03:58:37;6.90;99.90
39919;DHT22;25589;51.552;13.424;2022-11-13T04:01:21;8.20;99.90
39919;DHT22;25589;51.552;13.424;2022-11-13T04:04:05;7.70;99.90
39919;DHT22;25589;51.552;13.424;2022-11-13T04:06:49;7.70;99.90
39919;DHT22;25589;51.552;13.424;2022-11-13T04:09:35;8.80;99.90
39919;DHT22;25589;51.552;13.424;2022-11-13T04:12:19;8.20;99.90
39919;DHT22;25589;51.552;13.424;2022-11-13T04:15:03;6.80;99.90
39919;DHT22;25589;51.552;13.424;2022-11-13T04:17:49;7.70;99.90
39919;DHT22;25589;51.552;13.424;2022-11-13T04:20:33;7.80;99.90
39919;DHT22;25589;51.552;13.424;2022-11-13T04:23:18;7.40;99.90
39919;DHT22;25589;51.552;13.424;2022-11-13T04:26:02;7.70;99.90
39919;DHT22;25589;51.552;13.424;2022-11-13T04:28:46;7.70;99.90
39919;DHT22;25589;51.552;13.424;2022-11-13T04:31:30;8.70;99.90
39919;DHT22;25589;51.552;13.424;2022-11-13T04:34:14;7.70;99.90
39919;DHT22;25589;51.552;13.424;2022-11-13T04:36:58;6.80;99.90
39919;DHT22;25589;51.552;13.424;2022-11-13T04:39:42;8.40;99.90
39919;DHT22;25589;51.552;13.424;2022-11-13T04:42:26;7.60;99.90
39919;DHT22;25589;51.552;13.424;2022-11-13T04:45:29;7.10;99.90
39919;DHT22;25589;51.552;13.424;2022-11-13T04:48:13;7.50;99.90
39919;DHT22;25589;51.552;13.424;2022-11-13T04:50:58;7.60;99.90
39919;DHT22;25589;51.552;13.424;2022-11-13T04:53:42;6.70;99.90
39919;DHT22;25589;51.552;13.424;2022-11-13T04:56:26;7.40;99.90
39919;DHT22;25589;51.552;13.424;2022-11-13T04:59:10;7.40;99.90
39919;DHT22;25589;51.552;13.424;2022-11-13T05:01:54;7.40;99.90
39919;DHT22;25589;51.552;13.424;2022-11-13T05:04:38;7.40;99.90
39919;DHT22;25589;51.552;13.424;2022-11-13T05:07:23;6.50;99.90
39919;DHT22;25589;51.552;13.424;2022-11-13T05:10:09;7.30;99.90
39919;DHT22;25589;51.552;13.424;2022-11-13T05:15:40;7.90;99.90
39919;DHT22;25589;51.552;13.424;2022-11-13T05:18:24;8.20;99.90
39919;DHT22;25589;51.552;13.424;2022-11-13T05:21:09;6.70;99.90
39919;DHT22;25589;51.552;13.424;2022-11-13T05:23:54;7.30;99.90
39919;DHT22;25589;51.552;13.424;2022-11-13T05:26:38;7.40;99.90
39919;DHT22;25589;51.552;13.424;2022-11-13T05:29:23;6.10;99.90
39919;DHT22;25589;51.552;13.424;2022-11-13T05:32:07;7.30;99.90
39919;DHT22;25589;51.552;13.424;2022-11-13T05:34:51;7.70;99.90
39919;DHT22;25589;51.552;13.424;2022-11-13T05:37:35;7.40;99.90
39919;DHT22;25589;51.552;13.424;2022-11-13T05:40:19;8.00;99.90
39919;DHT22;25589;51.552;13.424;2022-11-13T05:43:03;7.20;99.90
39919;DHT22;25589;51.552;13.424;2022-11-13T05:45:47;6.80;99.90
39919;DHT22;25589;51.552;13.424;2022-11-13T05:48:32;7.30;99.90
39919;DHT22;25589;51.552;13.424;2022-11-13T05:51:28;7.50;99.90
39919;DHT22;25589;51.552;13.424;2022-11-13T05:54:12;7.10;99.90
39919;DHT22;25589;51.552;13.424;2022-11-13T05:56:56;7.50;99.90
39919;DHT22;25589;51.552;13.424;2022-11-13T05:59:40;7.90;99.90
39919;DHT22;25589;51.552;13.424;2022-11-13T06:02:24;7.80;99.90
39919;DHT22;25589;51.552;13.424;2022-11-13T06:05:08;7.10;99.90
39919;DHT22;25589;51.552;13.424;2022-11-13T06:07:52;7.20;99.90
39919;DHT22;25589;51.552;13.424;2022-11-13T06:10:36;7.10;99.90
39919;DHT22;25589;51.552;13.424;2022-11-13T06:13:20;6.00;99.90
39919;DHT22;25589;51.552;13.424;2022-11-13T06:16:10;7.10;99.90
39919;DHT22;25589;51.552;13.424;2022-11-13T06:18:59;7.10;99.90
39919;DHT22;25589;51.552;13.424;2022-11-13T06:21:43;7.20;99.90
39919;DHT22;25589;51.552;13.424;2022-11-13T06:24:27;7.20;99.90
39919;DHT22;25589;51.552;13.424;2022-11-13T06:27:11;7.60;99.90
39919;DHT22;25589;51.552;13.424;2022-11-13T06:29:55;6.10;99.90
39919;DHT22;25589;51.552;13.424;2022-11-13T06:32:39;7.30;99.90
39919;DHT22;25589;51.552;13.424;2022-11-13T06:35:23;7.30;99.90
39919;DHT22;25589;51.552;13.424;2022-11-13T06:38:07;8.00;99.90
39919;DHT22;25589;51.552;13.424;2022-11-13T06:40:52;7.10;99.90
39919;DHT22;25589;51.552;13.424;2022-11-13T06:43:36;7.30;99.90
39919;DHT22;25589;51.552;13.424;2022-11-13T06:46:23;7.50;99.90
39919;DHT22;25589;51.552;13.424;2022-11-13T06:49:07;7.40;99.90
39919;DHT22;25589;51.552;13.424;2022-11-13T06:51:51;7.40;99.90
39919;DHT22;25589;51.552;13.424;2022-11-13T06:54:35;7.60;99.90
39919;DHT22;25589;51.552;13.424;2022-11-13T06:57:19;7.30;99.90
39919;DHT22;25589;51.552;13.424;2022-11-13T07:00:04;7.50;99.90
39919;DHT22;25589;51.552;13.424;2022-11-13T07:02:49;7.70;99.90
39919;DHT22;25589;51.552;13.424;2022-11-13T07:05:35;7.80;99.90
39919;DHT22;25589;51.552;13.424;2022-11-13T07:08:20;7.00;99.90
39919;DHT22;25589;51.552;13.424;2022-11-13T07:11:04;7.80;99.90
39919;DHT22;25589;51.552;13.424;2022-11-13T07:13:50;7.90;99.90
39919;DHT22;25589;51.552;13.424;2022-11-13T07:16:34;9.10;99.90
39919;DHT22;25589;51.552;13.424;2022-11-13T07:19:18;8.00;99.90
39919;DHT22;25589;51.552;13.424;2022-11-13T07:22:02;7.50;99.90
39919;DHT22;25589;51.552;13.424;2022-11-13T07:24:46;7.30;99.90
39919;DHT22;25589;51.552;13.424;2022-11-13T07:27:30;7.00;99.90
39919;DHT22;25589;51.552;13.424;2022-11-13T07:30:14;8.10;99.90
39919;DHT22;25589;51.552;13.424;2022-11-13T07:33:02;8.00;99.90
39919;DHT22;25589;51.552;13.424;2022-11-13T07:35:47;7.60;99.90
39919;DHT22;25589;51.552;13.424;2022-11-13T07:38:31;7.90;99.90
39919;DHT22;25589;51.552;13.424;2022-11-13T07:41:15;8.60;99.90
39919;DHT22;25589;51.552;13.424;2022-11-13T07:43:59;8.20;99.90
39919;DHT22;25589;51.552;13.424;2022-11-13T07:46:43;7.90;99.90
39919;DHT22;25589;51.552;13.424;2022-11-13T07:49:27;8.40;99.90
39919;DHT22;25589;51.552;13.424;2022-11-13T07:52:11;9.30;99.90
39919;DHT22;25589;51.552;13.424;2022-11-13T07:54:55;8.40;99.90
39919;DHT22;25589;51.552;13.424;2022-11-13T07:57:39;8.40;99.90
39919;DHT22;25589;51.552;13.424;2022-11-13T08:00:24;8.90;99.90
39919;DHT22;25589;51.552;13.424;2022-11-13T08:03:11;8.30;99.90
39919;DHT22;25589;51.552;13.424;2022-11-13T08:06:04;9.30;99.90
39919;DHT22;25589;51.552;13.424;2022-11-13T08:08:49;8.60;99.90
39919;DHT22;25589;51.552;13.424;2022-11-13T08:11:33;8.60;99.90
39919;DHT22;25589;51.552;13.424;2022-11-13T08:14:17;8.70;99.90
39919;DHT22;25589;51.552;13.424;2022-11-13T08:17:01;8.70;99.90
39919;DHT22;25589;51.552;13.424;2022-11-13T08:19:45;8.70;99.90
39919;DHT22;25589;51.552;13.424;2022-11-13T08:22:29;7.50;99.90
39919;DHT22;25589;51.552;13.424;2022-11-13T08:25:14;8.20;99.90
39919;DHT22;25589;51.552;13.424;2022-11-13T08:27:58;8.70;99.90
39919;DHT22;25589;51.552;13.424;2022-11-13T08:30:43;9.50;99.90
39919;DHT22;25589;51.552;13.424;2022-11-13T08:33:28;8.80;99.90
39919;DHT22;25589;51.552;13.424;2022-11-13T08:36:12;8.60;99.90
39919;DHT22;25589;51.552;13.424;2022-11-13T08:38:56;8.80;99.90
39919;DHT22;25589;51.552;13.424;2022-11-13T08:41:40;8.80;99.90
39919;DHT22;25589;51.552;13.424;2022-11-13T08:44:24;8.70;99.90
39919;DHT22;25589;51.552;13.424;2022-11-13T08:47:08;9.60;99.90
39919;DHT22;25589;51.552;13.424;2022-11-13T08:49:52;8.80;99.90
39919;DHT22;25589;51.552;13.424;2022-11-13T08:52:37;9.60;99.90
39919;DHT22;25589;51.552;13.424;2022-11-13T08:58:06;8.90;99.90
39919;DHT22;25589;51.552;13.424;2022-11-13T09:00:50;8.30;99.90
39919;DHT22;25589;51.552;13.424;2022-11-13T09:03:34;8.40;99.90
39919;DHT22;25589;51.552;13.424;2022-11-13T09:06:20;8.90;99.90
39919;DHT22;25589;51.552;13.424;2022-11-13T09:09:04;8.80;99.90
39919;DHT22;25589;51.552;13.424;2022-11-13T09:11:50;8.70;99.90
39919;DHT22;25589;51.552;13.424;2022-11-13T09:14:35;8.80;99.90
39919;DHT22;25589;51.552;13.424;2022-11-13T09:17:20;9.20;99.90
39919;DHT22;25589;51.552;13.424;2022-11-13T09:20:04;9.60;99.90
39919;DHT22;25589;51.552;13.424;2022-11-13T09:22:59;9.30;99.90
39919;DHT22;25589;51.552;13.424;2022-11-13T09:25:44;9.30;99.90
39919;DHT22;25589;51.552;13.424;2022-11-13T09:28:28;8.10;99.90
39919;DHT22;25589;51.552;13.424;2022-11-13T09:31:12;10.00;99.90
39919;DHT22;25589;51.552;13.424;2022-11-13T09:33:56;9.20;99.90
39919;DHT22;25589;51.552;13.424;2022-11-13T09:36:40;10.10;99.90
39919;DHT22;25589;51.552;13.424;2022-11-13T09:39:24;9.90;99.90
39919;DHT22;25589;51.552;13.424;2022-11-13T09:42:18;9.40;99.90
39919;DHT22;25589;51.552;13.424;2022-11-13T09:45:10;9.50;99.90
39919;DHT22;25589;51.552;13.424;2022-11-13T09:48:04;9.50;99.90
39919;DHT22;25589;51.552;13.424;2022-11-13T09:50:50;9.40;99.90
39919;DHT22;25589;51.552;13.424;2022-11-13T09:53:36;9.40;99.90
39919;DHT22;25589;51.552;13.424;2022-11-13T09:59:36;10.30;99.90
39919;DHT22;25589;51.552;13.424;2022-11-13T10:11:49;10.40;99.90
39919;DHT22;25589;51.552;13.424;2022-11-13T10:14:38;9.40;99.90
39919;DHT22;25589;51.552;13.424;2022-11-13T10:17:36;10.00;99.90
39919;DHT22;25589;51.552;13.424;2022-11-13T10:20:27;10.50;99.90
39919;DHT22;25589;51.552;13.424;2022-11-13T10:23:21;10.40;99.90
39919;DHT22;25589;51.552;13.424;2022-11-13T10:31:51;11.60;99.90
39919;DHT22;25589;51.552;13.424;2022-11-13T10:34:35;11.20;99.90
39919;DHT22;25589;51.552;13.424;2022-11-13T10:37:34;11.40;99.90
39919;DHT22;25589;51.552;13.424;2022-11-13T10:40:29;11.60;99.90
39919;DHT22;25589;51.552;13.424;2022-11-13T10:43:19;11.90;99.90
39919;DHT22;25589;51.552;13.424;2022-11-13T10:46:04;11.80;99.90
39919;DHT22;25589;51.552;13.424;2022-11-13T10:48:49;12.10;99.90
39919;DHT22;25589;51.552;13.424;2022-11-13T10:51:33;12.10;99.90
39919;DHT22;25589;51.552;13.424;2022-11-13T10:54:24;12.70;99.90
39919;DHT22;25589;51.552;13.424;2022-11-13T10:57:31;12.40;99.90
39919;DHT22;25589;51.552;13.424;2022-11-13T11:00:32;12.40;99.90
39919;DHT22;25589;51.552;13.424;2022-11-13T11:03:20;12.60;99.90
39919;DHT22;25589;51.552;13.424;2022-11-13T11:06:04;13.70;99.90
39919;DHT22;25589;51.552;13.424;2022-11-13T11:08:49;12.80;99.90
39919;DHT22;25589;51.552;13.424;2022-11-13T11:11:33;13.40;99.90
39919;DHT22;25589;51.552;13.424;2022-11-13T11:14:45;13.00;99.90
39919;DHT22;25589;51.552;13.424;2022-11-13T11:17:35;13.00;99.90
39919;DHT22;25589;51.552;13.424;2022-11-13T11:23:38;13.50;99.90
39919;DHT22;25589;51.552;13.424;2022-11-13T11:26:46;13.60;99.90
39919;DHT22;25589;51.552;13.424;2022-11-13T11:29:33;13.60;99.90
39919;DHT22;25589;51.552;13.424;2022-11-13T11:32:35;13.60;99.90
39919;DHT22;25589;51.552;13.424;2022-11-13T11:35:21;13.70;99.90
39919;DHT22;25589;51.552;13.424;2022-11-13T11:38:36;13.90;99.90
39919;DHT22;25589;51.552;13.424;2022-11-13T11:41:34;13.80;99.90
39919;DHT22;25589;51.552;13.424;2022-11-13T11:45:09;13.90;99.90
39919;DHT22;25589;51.552;13.424;2022-11-13T11:47:55;14.00;99.90
39919;DHT22;25589;51.552;13.424;2022-11-13T11:50:56;14.10;99.90
39919;DHT22;25589;51.552;13.424;2022-11-13T12:00:03;14.50;99.90
39919;DHT22;25589;51.552;13.424;2022-11-13T12:03:25;14.70;99.90
39919;DHT22;25589;51.552;13.424;2022-11-13T12:06:47;14.70;99.90
39919;DHT22;25589;51.552;13.424;2022-11-13T12:09:50;14.90;99.90
39919;DHT22;25589;51.552;13.424;2022-11-13T12:12:59;15.00;99.90
39919;DHT22;25589;51.552;13.424;2022-11-13T12:18:54;15.50;99.90
39919;DHT22;25589;51.552;13.424;2022-11-13T12:22:23;15.40;99.90
39919;DHT22;25589;51.552;13.424;2022-11-13T12:28:19;15.90;99.90
39919;DHT22;25589;51.552;13.424;2022-11-13T12:34:17;15.30;99.90
39919;DHT22;25589;51.552;13.424;2022-11-13T12:37:09;15.70;99.90
39919;DHT22;25589;51.552;13.424;2022-11-13T12:39:58;15.70;99.90
39919;DHT22;25589;51.552;13.424;2022-11-13T12:42:49;15.30;99.90
39919;DHT22;25589;51.552;13.424;2022-11-13T12:51:07;15.70;99.90
39919;DHT22;25589;51.552;13.424;2022-11-13T12:53:53;15.70;99.90
39919;DHT22;25589;51.552;13.424;2022-11-13T12:56:37;15.50;99.90
39919;DHT22;25589;51.552;13.424;2022-11-13T13:08:13;15.80;99.90
39919;DHT22;25589;51.552;13.424;2022-11-13T13:11:20;15.90;99.90
39919;DHT22;25589;51.552;13.424;2022-11-13T13:14:52;16.00;99.90
39919;DHT22;25589;51.552;13.424;2022-11-13T13:17:37;16.20;99.90
39919;DHT22;25589;51.552;13.424;2022-11-13T13:20:29;16.20;99.90
39919;DHT22;25589;51.552;13.424;2022-11-13T13:23:28;16.10;99.90
39919;DHT22;25589;51.552;13.424;2022-11-13T13:26:20;16.30;99.90
39919;DHT22;25589;51.552;13.424;2022-11-13T13:29:16;16.40;99.90
39919;DHT22;25589;51.552;13.424;2022-11-13T13:32:21;16.40;99.90
39919;DHT22;25589;51.552;13.424;2022-11-13T13:38:37;16.90;99.90
39919;DHT22;25589;51.552;13.424;2022-11-13T13:47:50;16.60;99.90
39919;DHT22;25589;51.552;13.424;2022-11-13T13:50:43;16.80;99.90
39919;DHT22;25589;51.552;13.424;2022-11-13T13:53:31;16.90;99.90
39919;DHT22;25589;51.552;13.424;2022-11-13T13:56:18;16.90;99.90
39919;DHT22;25589;51.552;13.424;2022-11-13T13:59:03;17.00;99.90
39919;DHT22;25589;51.552;13.424;2022-11-13T14:01:59;17.00;99.90
39919;DHT22;25589;51.552;13.424;2022-11-13T14:04:46;17.30;99.90
39919;DHT22;25589;51.552;13.424;2022-11-13T14:07:30;17.30;99.90
39919;DHT22;25589;51.552;13.424;2022-11-13T14:10:18;17.70;99.90
39919;DHT22;25589;51.552;13.424;2022-11-13T14:13:03;17.40;99.90
39919;DHT22;25589;51.552;13.424;2022-11-13T14:15:47;17.30;99.90
39919;DHT22;25589;51.552;13.424;2022-11-13T14:18:33;17.10;99.90
39919;DHT22;25589;51.552;13.424;2022-11-13T14:21:19;16.70;99.90
39919;DHT22;25589;51.552;13.424;2022-11-13T14:24:14;16.40;99.90
39919;DHT22;25589;51.552;13.424;2022-11-13T14:27:01;15.80;99.90
39919;DHT22;25589;51.552;13.424;2022-11-13T14:29:50;16.00;99.90
39919;DHT22;25589;51.552;13.424;2022-11-13T14:32:38;15.60;99.90
39919;DHT22;25589;51.552;13.424;2022-11-13T14:35:25;15.60;99.90
39919;DHT22;25589;51.552;13.424;2022-11-13T14:38:18;15.40;99.90
39919;DHT22;25589;51.552;13.424;2022-11-13T14:41:03;15.30;99.90
39919;DHT22;25589;51.552;13.424;2022-11-13T14:43:50;15.10;99.90
39919;DHT22;25589;51.552;13.424;2022-11-13T14:46:36;15.30;99.90
39919;DHT22;25589;51.552;13.424;2022-11-13T14:49:32;14.70;99.90
39919;DHT22;25589;51.552;13.424;2022-11-13T14:52:25;15.10;99.90
39919;DHT22;25589;51.552;13.424;2022-11-13T14:55:22;14.70;99.90
39919;DHT22;25589;51.552;13.424;2022-11-13T14:58:11;14.50;99.90
39919;DHT22;25589;51.552;13.424;2022-11-13T15:00:57;14.40;99.90
39919;DHT22;25589;51.552;13.424;2022-11-13T15:03:45;14.00;99.90
39919;DHT22;25589;51.552;13.424;2022-11-13T15:06:39;13.70;99.90
39919;DHT22;25589;51.552;13.424;2022-11-13T15:09:23;14.30;99.90
39919;DHT22;25589;51.552;13.424;2022-11-13T15:12:11;13.40;99.90
39919;DHT22;25589;51.552;13.424;2022-11-13T15:14:56;13.20;99.90
39919;DHT22;25589;51.552;13.424;2022-11-13T15:17:40;13.40;99.90
39919;DHT22;25589;51.552;13.424;2022-11-13T15:20:27;12.90;99.90
39919;DHT22;25589;51.552;13.424;2022-11-13T15:23:13;13.00;99.90
39919;DHT22;25589;51.552;13.424;2022-11-13T15:25:58;12.40;99.90
39919;DHT22;25589;51.552;13.424;2022-11-13T15:28:42;12.80;99.90
39919;DHT22;25589;51.552;13.424;2022-11-13T15:31:46;12.50;99.90
39919;DHT22;25589;51.552;13.424;2022-11-13T15:34:30;12.30;99.90
39919;DHT22;25589;51.552;13.424;2022-11-13T15:37:15;12.80;99.90
39919;DHT22;25589;51.552;13.424;2022-11-13T15:39:59;12.10;99.90
39919;DHT22;25589;51.552;13.424;2022-11-13T15:42:43;11.60;99.90
39919;DHT22;25589;51.552;13.424;2022-11-13T15:45:28;11.50;99.90
39919;DHT22;25589;51.552;13.424;2022-11-13T15:48:12;11.80;99.90
39919;DHT22;25589;51.552;13.424;2022-11-13T15:50:56;12.00;99.90
39919;DHT22;25589;51.552;13.424;2022-11-13T15:53:43;11.70;99.90
39919;DHT22;25589;51.552;13.424;2022-11-13T15:56:28;11.30;99.90
39919;DHT22;25589;51.552;13.424;2022-11-13T15:59:13;12.40;99.90
39919;DHT22;25589;51.552;13.424;2022-11-13T16:01:58;11.40;99.90
39919;DHT22;25589;51.552;13.424;2022-11-13T16:04:43;11.10;99.90
39919;DHT22;25589;51.552;13.424;2022-11-13T16:07:27;11.40;99.90
39919;DHT22;25589;51.552;13.424;2022-11-13T16:10:13;11.30;99.90
39919;DHT22;25589;51.552;13.424;2022-11-13T16:12:58;11.90;99.90
39919;DHT22;25589;51.552;13.424;2022-11-13T16:15:42;11.00;99.90
39919;DHT22;25589;51.552;13.424;2022-11-13T16:18:28;11.20;99.90
39919;DHT22;25589;51.552;13.424;2022-11-13T16:21:13;12.20;99.90
39919;DHT22;25589;51.552;13.424;2022-11-13T16:23:57;11.20;99.90
39919;DHT22;25589;51.552;13.424;2022-11-13T16:26:47;11.00;99.90
39919;DHT22;25589;51.552;13.424;2022-11-13T16:29:31;10.90;99.90
39919;DHT22;25589;51.552;13.424;2022-11-13T16:32:16;10.90;99.90
39919;DHT22;25589;51.552;13.424;2022-11-13T16:35:00;10.90;99.90
39919;DHT22;25589;51.552;13.424;2022-11-13T16:37:44;11.20;99.90
39919;DHT22;25589;51.552;13.424;2022-11-13T16:43:13;10.90;99.90
39919;DHT22;25589;51.552;13.424;2022-11-13T16:45:58;10.80;99.90
39919;DHT22;25589;51.552;13.424;2022-11-13T16:48:43;10.80;99.90
39919;DHT22;25589;51.552;13.424;2022-11-13T16:51:27;10.70;99.90
39919;DHT22;25589;51.552;13.424;2022-11-13T16:54:12;11.20;99.90
39919;DHT22;25589;51.552;13.424;2022-11-13T16:56:56;10.60;99.90
39919;DHT22;25589;51.552;13.424;2022-11-13T16:59:41;10.60;99.90
39919;DHT22;25589;51.552;13.424;2022-11-13T17:02:25;10.90;99.90
39919;DHT22;25589;51.552;13.424;2022-11-13T17:05:15;10.70;99.90
39919;DHT22;25589;51.552;13.424;2022-11-13T17:07:59;10.50;99.90
39919;DHT22;25589;51.552;13.424;2022-11-13T17:10:44;10.40;99.90
39919;DHT22;25589;51.552;13.424;2022-11-13T17:13:29;10.50;99.90
39919;DHT22;25589;51.552;13.424;2022-11-13T17:16:13;10.60;99.90
39919;DHT22;25589;51.552;13.424;2022-11-13T17:21:43;11.00;99.90
39919;DHT22;25589;51.552;13.424;2022-11-13T17:24:27;10.80;99.90
39919;DHT22;25589;51.552;13.424;2022-11-13T17:27:11;10.20;99.90
39919;DHT22;25589;51.552;13.424;2022-11-13T17:29:55;10.30;99.90
39919;DHT22;25589;51.552;13.424;2022-11-13T17:32:40;10.60;99.90
39919;DHT22;25589;51.552;13.424;2022-11-13T17:35:24;10.20;99.90
39919;DHT22;25589;51.552;13.424;2022-11-13T17:38:12;9.80;99.90
39919;DHT22;25589;51.552;13.424;2022-11-13T17:41:06;10.20;99.90
39919;DHT22;25589;51.552;13.424;2022-11-13T17:43:51;10.20;99.90
39919;DHT22;25589;51.552;13.424;2022-11-13T17:46:35;10.40;99.90
39919;DHT22;25589;51.552;13.424;2022-11-13T17:49:19;9.00;99.90
39919;DHT22;25589;51.552;13.424;2022-11-13T17:52:04;10.00;99.90
39919;DHT22;25589;51.552;13.424;2022-11-13T17:54:48;10.00;99.90
39919;DHT22;25589;51.552;13.424;2022-11-13T17:57:32;9.90;99.90
39919;DHT22;25589;51.552;13.424;2022-11-13T18:00:17;9.90;99.90
39919;DHT22;25589;51.552;13.424;2022-11-13T18:03:01;9.80;99.90
39919;DHT22;25589;51.552;13.424;2022-11-13T18:05:45;9.90;99.90
39919;DHT22;25589;51.552;13.424;2022-11-13T18:08:29;9.90;99.90
39919;DHT22;25589;51.552;13.424;2022-11-13T18:11:20;9.80;99.90
39919;DHT22;25589;51.552;13.424;2022-11-13T18:14:04;10.30;99.90
39919;DHT22;25589;51.552;13.424;2022-11-13T18:16:48;10.60;99.90
39919;DHT22;25589;51.552;13.424;2022-11-13T18:19:32;9.80;99.90
39919;DHT22;25589;51.552;13.424;2022-11-13T18:22:17;10.30;99.90
39919;DHT22;25589;51.552;13.424;2022-11-13T18:25:01;9.30;99.90
39919;DHT22;25589;51.552;13.424;2022-11-13T18:27:46;9.70;99.90
39919;DHT22;25589;51.552;13.424;2022-11-13T18:30:30;9.70;99.90
39919;DHT22;25589;51.552;13.424;2022-11-13T18:33:14;9.50;99.90
39919;DHT22;25589;51.552;13.424;2022-11-13T18:35:58;9.50;99.90
39919;DHT22;25589;51.552;13.424;2022-11-13T18:38:43;9.70;99.90
39919;DHT22;25589;51.552;13.424;2022-11-13T18:41:27;9.90;99.90
39919;DHT22;25589;51.552;13.424;2022-11-13T18:44:11;9.60;99.90
39919;DHT22;25589;51.552;13.424;2022-11-13T18:46:55;9.50;99.90
39919;DHT22;25589;51.552;13.424;2022-11-13T18:49:39;9.50;99.90
39919;DHT22;25589;51.552;13.424;2022-11-13T18:52:23;9.40;99.90